sensor_id;sensor_type;location;lat;lon;timestamp;P1;durP1;ratioP1;P2;durP2;ratioP2
20725;SDS011;10524;48.132;8.518;2024-01-30T00:01:43;24.73;;;15.90;;
20725;SDS011;10524;48.132;8.518;2024-01-30T00:04:08;22.00;;;14.32;;
20725;SDS011;10524;48.132;8.518;2024-01-30T00:06:34;22.63;;;14.45;;
20725;SDS011;10524;48.132;8.518;2024-01-30T00:09:00;25.92;;;16.17;;
20725;SDS011;10524;48.132;8.518;2024-01-30T00:11:25;27.20;;;15.73;;
20725;SDS011;10524;48.132;8.518;2024-01-30T00:13:52;27.38;;;15.90;;
20725;SDS011;10524;48.132;8.518;2024-01-30T00:16:21;33.28;;;20.63;;
20725;SDS011;10524;48.132;8.518;2024-01-30T00:18:50;34.53;;;22.80;;
20725;SDS011;10524;48.132;8.518;2024-01-30T00:21:17;33.90;;;22.77;;
20725;SDS011;10524;48.132;8.518;2024-01-30T00:23:43;35.13;;;23.00;;
20725;SDS011;10524;48.132;8.518;2024-01-30T00:26:09;33.47;;;21.63;;
20725;SDS011;10524;48.132;8.518;2024-01-30T00:28:35;37.92;;;23.92;;
20725;SDS011;10524;48.132;8.518;2024-01-30T00:31:00;32.17;;;21.13;;
20725;SDS011;10524;48.132;8.518;2024-01-30T00:33:26;33.60;;;20.00;;
20725;SDS011;10524;48.132;8.518;2024-01-30T00:35:52;26.73;;;18.10;;
20725;SDS011;10524;48.132;8.518;2024-01-30T00:38:17;27.63;;;16.90;;
20725;SDS011;10524;48.132;8.518;2024-01-30T00:40:43;28.83;;;18.08;;
20725;SDS011;10524;48.132;8.518;2024-01-30T00:43:09;26.70;;;17.63;;
20725;SDS011;10524;48.132;8.518;2024-01-30T00:45:35;29.67;;;17.55;;
20725;SDS011;10524;48.132;8.518;2024-01-30T00:48:00;30.15;;;17.20;;
20725;SDS011;10524;48.132;8.518;2024-01-30T00:50:26;28.27;;;18.38;;
20725;SDS011;10524;48.132;8.518;2024-01-30T00:52:52;27.17;;;17.30;;
20725;SDS011;10524;48.132;8.518;2024-01-30T00:55:18;26.17;;;16.63;;
20725;SDS011;10524;48.132;8.518;2024-01-30T00:57:44;26.92;;;14.38;;
20725;SDS011;10524;48.132;8.518;2024-01-30T01:00:10;24.85;;;14.23;;
20725;SDS011;10524;48.132;8.518;2024-01-30T01:02:36;26.08;;;17.15;;
20725;SDS011;10524;48.132;8.518;2024-01-30T01:05:02;27.67;;;17.42;;
20725;SDS011;10524;48.132;8.518;2024-01-30T01:07:28;28.70;;;18.80;;
20725;SDS011;10524;48.132;8.518;2024-01-30T01:09:54;26.55;;;17.80;;
20725;SDS011;10524;48.132;8.518;2024-01-30T01:12:19;25.00;;;17.70;;
20725;SDS011;10524;48.132;8.518;2024-01-30T01:14:45;28.02;;;17.58;;
20725;SDS011;10524;48.132;8.518;2024-01-30T01:17:11;24.85;;;15.60;;
20725;SDS011;10524;48.132;8.518;2024-01-30T01:19:37;23.52;;;14.32;;
20725;SDS011;10524;48.132;8.518;2024-01-30T01:22:03;23.30;;;14.43;;
20725;SDS011;10524;48.132;8.518;2024-01-30T01:24:30;25.38;;;16.52;;
20725;SDS011;10524;48.132;8.518;2024-01-30T01:26:57;22.92;;;13.23;;
20725;SDS011;10524;48.132;8.518;2024-01-30T01:29:23;22.63;;;12.75;;
20725;SDS011;10524;48.132;8.518;2024-01-30T01:31:55;23.55;;;14.63;;
20725;SDS011;10524;48.132;8.518;2024-01-30T01:34:21;21.40;;;14.23;;
20725;SDS011;10524;48.132;8.518;2024-01-30T01:36:48;21.95;;;11.80;;
20725;SDS011;10524;48.132;8.518;2024-01-30T01:39:15;20.98;;;13.68;;
20725;SDS011;10524;48.132;8.518;2024-01-30T01:41:41;20.58;;;13.07;;
20725;SDS011;10524;48.132;8.518;2024-01-30T01:44:07;20.15;;;13.80;;
20725;SDS011;10524;48.132;8.518;2024-01-30T01:46:33;20.40;;;12.23;;
20725;SDS011;10524;48.132;8.518;2024-01-30T01:49:00;17.60;;;10.43;;
20725;SDS011;10524;48.132;8.518;2024-01-30T01:51:30;17.20;;;10.18;;
20725;SDS011;10524;48.132;8.518;2024-01-30T01:53:58;20.17;;;11.77;;
20725;SDS011;10524;48.132;8.518;2024-01-30T01:56:26;21.58;;;12.23;;
20725;SDS011;10524;48.132;8.518;2024-01-30T01:58:54;22.20;;;13.07;;
20725;SDS011;10524;48.132;8.518;2024-01-30T02:01:20;18.17;;;12.32;;
20725;SDS011;10524;48.132;8.518;2024-01-30T02:03:46;18.45;;;12.18;;
20725;SDS011;10524;48.132;8.518;2024-01-30T02:06:15;15.18;;;9.23;;
20725;SDS011;10524;48.132;8.518;2024-01-30T02:08:42;18.83;;;11.32;;
20725;SDS011;10524;48.132;8.518;2024-01-30T02:11:08;13.52;;;8.45;;
20725;SDS011;10524;48.132;8.518;2024-01-30T02:13:35;14.77;;;9.35;;
20725;SDS011;10524;48.132;8.518;2024-01-30T02:16:01;13.15;;;8.07;;
20725;SDS011;10524;48.132;8.518;2024-01-30T02:18:27;11.32;;;7.20;;
20725;SDS011;10524;48.132;8.518;2024-01-30T02:20:53;12.98;;;7.03;;
20725;SDS011;10524;48.132;8.518;2024-01-30T02:23:22;15.27;;;8.50;;
20725;SDS011;10524;48.132;8.518;2024-01-30T02:25:50;11.55;;;7.50;;
20725;SDS011;10524;48.132;8.518;2024-01-30T02:28:18;11.07;;;6.60;;
20725;SDS011;10524;48.132;8.518;2024-01-30T02:30:45;10.05;;;6.90;;
20725;SDS011;10524;48.132;8.518;2024-01-30T02:33:14;13.70;;;8.52;;
20725;SDS011;10524;48.132;8.518;2024-01-30T02:35:40;13.93;;;8.73;;
20725;SDS011;10524;48.132;8.518;2024-01-30T02:38:06;13.93;;;9.10;;
20725;SDS011;10524;48.132;8.518;2024-01-30T02:40:32;13.35;;;8.57;;
20725;SDS011;10524;48.132;8.518;2024-01-30T02:42:58;13.05;;;8.48;;
20725;SDS011;10524;48.132;8.518;2024-01-30T02:45:25;14.55;;;8.80;;
20725;SDS011;10524;48.132;8.518;2024-01-30T02:47:51;14.60;;;8.98;;
20725;SDS011;10524;48.132;8.518;2024-01-30T02:50:17;13.73;;;9.40;;
20725;SDS011;10524;48.132;8.518;2024-01-30T02:52:43;15.80;;;9.30;;
20725;SDS011;10524;48.132;8.518;2024-01-30T02:55:09;13.50;;;9.10;;
20725;SDS011;10524;48.132;8.518;2024-01-30T02:57:35;13.27;;;8.50;;
20725;SDS011;10524;48.132;8.518;2024-01-30T03:00:01;14.48;;;8.35;;
20725;SDS011;10524;48.132;8.518;2024-01-30T03:02:26;14.60;;;10.10;;
20725;SDS011;10524;48.132;8.518;2024-01-30T03:04:52;14.05;;;9.82;;
20725;SDS011;10524;48.132;8.518;2024-01-30T03:07:18;13.85;;;9.32;;
20725;SDS011;10524;48.132;8.518;2024-01-30T03:09:44;13.25;;;9.40;;
20725;SDS011;10524;48.132;8.518;2024-01-30T03:12:09;13.60;;;8.85;;
20725;SDS011;10524;48.132;8.518;2024-01-30T03:14:35;14.40;;;8.68;;
20725;SDS011;10524;48.132;8.518;2024-01-30T03:17:01;12.15;;;8.18;;
20725;SDS011;10524;48.132;8.518;2024-01-30T03:19:27;12.93;;;8.15;;
20725;SDS011;10524;48.132;8.518;2024-01-30T03:21:53;14.88;;;8.15;;
20725;SDS011;10524;48.132;8.518;2024-01-30T03:24:19;13.90;;;8.15;;
20725;SDS011;10524;48.132;8.518;2024-01-30T03:26:45;12.82;;;7.70;;
20725;SDS011;10524;48.132;8.518;2024-01-30T03:29:10;15.27;;;8.10;;
20725;SDS011;10524;48.132;8.518;2024-01-30T03:31:36;15.10;;;8.52;;
20725;SDS011;10524;48.132;8.518;2024-01-30T03:34:02;15.57;;;9.25;;
20725;SDS011;10524;48.132;8.518;2024-01-30T03:36:28;16.77;;;9.57;;
20725;SDS011;10524;48.132;8.518;2024-01-30T03:38:53;15.82;;;9.27;;
20725;SDS011;10524;48.132;8.518;2024-01-30T03:41:19;16.10;;;8.20;;
20725;SDS011;10524;48.132;8.518;2024-01-30T03:43:46;13.02;;;7.93;;
20725;SDS011;10524;48.132;8.518;2024-01-30T03:46:12;13.57;;;8.30;;
20725;SDS011;10524;48.132;8.518;2024-01-30T03:48:38;13.07;;;8.45;;
20725;SDS011;10524;48.132;8.518;2024-01-30T03:51:04;16.00;;;9.35;;
20725;SDS011;10524;48.132;8.518;2024-01-30T03:53:30;19.02;;;10.07;;
20725;SDS011;10524;48.132;8.518;2024-01-30T03:55:56;19.75;;;9.95;;
20725;SDS011;10524;48.132;8.518;2024-01-30T03:58:22;19.38;;;10.98;;
20725;SDS011;10524;48.132;8.518;2024-01-30T04:00:48;18.27;;;10.40;;
20725;SDS011;10524;48.132;8.518;2024-01-30T04:03:14;14.35;;;8.65;;
20725;SDS011;10524;48.132;8.518;2024-01-30T04:05:40;12.93;;;8.52;;
20725;SDS011;10524;48.132;8.518;2024-01-30T04:08:07;18.17;;;10.98;;
20725;SDS011;10524;48.132;8.518;2024-01-30T04:10:33;21.17;;;12.27;;
20725;SDS011;10524;48.132;8.518;2024-01-30T04:12:59;21.98;;;12.65;;
20725;SDS011;10524;48.132;8.518;2024-01-30T04:15:25;25.05;;;12.70;;
20725;SDS011;10524;48.132;8.518;2024-01-30T04:17:52;23.55;;;13.57;;
20725;SDS011;10524;48.132;8.518;2024-01-30T04:20:17;26.08;;;14.32;;
20725;SDS011;10524;48.132;8.518;2024-01-30T04:22:43;25.00;;;12.88;;
20725;SDS011;10524;48.132;8.518;2024-01-30T04:25:10;23.75;;;13.70;;
20725;SDS011;10524;48.132;8.518;2024-01-30T04:27:36;22.42;;;13.70;;
20725;SDS011;10524;48.132;8.518;2024-01-30T04:30:02;24.85;;;13.93;;
20725;SDS011;10524;48.132;8.518;2024-01-30T04:32:29;27.83;;;14.07;;
20725;SDS011;10524;48.132;8.518;2024-01-30T04:34:55;28.10;;;14.50;;
20725;SDS011;10524;48.132;8.518;2024-01-30T04:37:20;22.65;;;12.73;;
20725;SDS011;10524;48.132;8.518;2024-01-30T04:39:46;21.80;;;12.63;;
20725;SDS011;10524;48.132;8.518;2024-01-30T04:42:12;25.08;;;13.55;;
20725;SDS011;10524;48.132;8.518;2024-01-30T04:44:38;27.50;;;15.60;;
20725;SDS011;10524;48.132;8.518;2024-01-30T04:47:04;22.63;;;14.65;;
20725;SDS011;10524;48.132;8.518;2024-01-30T04:49:31;22.67;;;13.70;;
20725;SDS011;10524;48.132;8.518;2024-01-30T04:51:57;19.35;;;12.00;;
20725;SDS011;10524;48.132;8.518;2024-01-30T04:54:23;19.67;;;11.73;;
20725;SDS011;10524;48.132;8.518;2024-01-30T04:56:49;21.67;;;12.25;;
20725;SDS011;10524;48.132;8.518;2024-01-30T04:59:15;21.55;;;12.48;;
20725;SDS011;10524;48.132;8.518;2024-01-30T05:01:41;29.98;;;16.15;;
20725;SDS011;10524;48.132;8.518;2024-01-30T05:04:09;28.35;;;17.20;;
20725;SDS011;10524;48.132;8.518;2024-01-30T05:06:36;29.92;;;17.67;;
20725;SDS011;10524;48.132;8.518;2024-01-30T05:09:02;28.70;;;15.73;;
20725;SDS011;10524;48.132;8.518;2024-01-30T05:11:31;30.52;;;16.60;;
20725;SDS011;10524;48.132;8.518;2024-01-30T05:14:01;29.33;;;15.43;;
20725;SDS011;10524;48.132;8.518;2024-01-30T05:16:27;33.70;;;19.10;;
20725;SDS011;10524;48.132;8.518;2024-01-30T05:18:53;30.27;;;15.88;;
20725;SDS011;10524;48.132;8.518;2024-01-30T05:21:18;33.40;;;18.23;;
20725;SDS011;10524;48.132;8.518;2024-01-30T05:23:44;33.58;;;16.33;;
20725;SDS011;10524;48.132;8.518;2024-01-30T05:26:10;29.70;;;15.85;;
20725;SDS011;10524;48.132;8.518;2024-01-30T05:28:35;30.10;;;15.75;;
20725;SDS011;10524;48.132;8.518;2024-01-30T05:31:01;29.85;;;15.63;;
20725;SDS011;10524;48.132;8.518;2024-01-30T05:33:27;26.45;;;15.52;;
20725;SDS011;10524;48.132;8.518;2024-01-30T05:35:53;24.80;;;14.13;;
20725;SDS011;10524;48.132;8.518;2024-01-30T05:38:19;25.52;;;15.32;;
20725;SDS011;10524;48.132;8.518;2024-01-30T05:40:45;24.95;;;14.43;;
20725;SDS011;10524;48.132;8.518;2024-01-30T05:43:11;26.10;;;14.13;;
20725;SDS011;10524;48.132;8.518;2024-01-30T05:45:37;25.90;;;13.88;;
20725;SDS011;10524;48.132;8.518;2024-01-30T05:48:03;25.33;;;14.38;;
20725;SDS011;10524;48.132;8.518;2024-01-30T05:50:29;27.77;;;15.80;;
20725;SDS011;10524;48.132;8.518;2024-01-30T05:52:56;23.92;;;14.07;;
20725;SDS011;10524;48.132;8.518;2024-01-30T05:55:22;24.52;;;15.60;;
20725;SDS011;10524;48.132;8.518;2024-01-30T05:57:48;26.42;;;16.13;;
20725;SDS011;10524;48.132;8.518;2024-01-30T06:00:14;24.20;;;15.77;;
20725;SDS011;10524;48.132;8.518;2024-01-30T06:02:40;24.40;;;15.07;;
20725;SDS011;10524;48.132;8.518;2024-01-30T06:05:06;26.75;;;15.40;;
20725;SDS011;10524;48.132;8.518;2024-01-30T06:07:32;27.65;;;14.05;;
20725;SDS011;10524;48.132;8.518;2024-01-30T06:09:57;28.75;;;16.50;;
20725;SDS011;10524;48.132;8.518;2024-01-30T06:12:25;28.60;;;16.10;;
20725;SDS011;10524;48.132;8.518;2024-01-30T06:14:52;30.73;;;17.67;;
20725;SDS011;10524;48.132;8.518;2024-01-30T06:17:19;33.60;;;17.10;;
20725;SDS011;10524;48.132;8.518;2024-01-30T06:19:45;31.23;;;17.83;;
20725;SDS011;10524;48.132;8.518;2024-01-30T06:22:10;35.95;;;19.52;;
20725;SDS011;10524;48.132;8.518;2024-01-30T06:24:36;33.55;;;16.55;;
20725;SDS011;10524;48.132;8.518;2024-01-30T06:27:02;38.38;;;23.20;;
20725;SDS011;10524;48.132;8.518;2024-01-30T06:29:28;37.38;;;21.42;;
20725;SDS011;10524;48.132;8.518;2024-01-30T06:31:54;43.63;;;20.58;;
20725;SDS011;10524;48.132;8.518;2024-01-30T06:34:19;40.20;;;19.20;;
20725;SDS011;10524;48.132;8.518;2024-01-30T06:36:46;37.58;;;18.83;;
20725;SDS011;10524;48.132;8.518;2024-01-30T06:39:12;36.47;;;19.52;;
20725;SDS011;10524;48.132;8.518;2024-01-30T06:41:37;43.15;;;23.63;;
20725;SDS011;10524;48.132;8.518;2024-01-30T06:44:03;37.80;;;21.25;;
20725;SDS011;10524;48.132;8.518;2024-01-30T06:46:31;39.72;;;18.67;;
20725;SDS011;10524;48.132;8.518;2024-01-30T06:48:57;38.28;;;21.17;;
20725;SDS011;10524;48.132;8.518;2024-01-30T06:51:23;40.03;;;21.77;;
20725;SDS011;10524;48.132;8.518;2024-01-30T06:53:49;36.92;;;21.95;;
20725;SDS011;10524;48.132;8.518;2024-01-30T06:56:15;39.35;;;22.73;;
20725;SDS011;10524;48.132;8.518;2024-01-30T06:58:46;38.75;;;21.80;;
20725;SDS011;10524;48.132;8.518;2024-01-30T07:01:14;34.65;;;18.25;;
20725;SDS011;10524;48.132;8.518;2024-01-30T07:03:41;38.42;;;21.40;;
20725;SDS011;10524;48.132;8.518;2024-01-30T07:06:07;41.53;;;22.00;;
20725;SDS011;10524;48.132;8.518;2024-01-30T07:08:33;40.70;;;22.23;;
20725;SDS011;10524;48.132;8.518;2024-01-30T07:11:00;43.05;;;24.58;;
20725;SDS011;10524;48.132;8.518;2024-01-30T07:13:26;43.03;;;23.83;;
20725;SDS011;10524;48.132;8.518;2024-01-30T07:15:53;45.05;;;23.85;;
20725;SDS011;10524;48.132;8.518;2024-01-30T07:18:19;42.50;;;24.95;;
20725;SDS011;10524;48.132;8.518;2024-01-30T07:20:45;40.88;;;24.20;;
20725;SDS011;10524;48.132;8.518;2024-01-30T07:23:14;41.78;;;20.75;;
20725;SDS011;10524;48.132;8.518;2024-01-30T07:25:45;41.25;;;22.35;;
20725;SDS011;10524;48.132;8.518;2024-01-30T07:28:13;42.55;;;24.10;;
20725;SDS011;10524;48.132;8.518;2024-01-30T07:30:41;42.40;;;22.67;;
20725;SDS011;10524;48.132;8.518;2024-01-30T07:33:08;33.60;;;20.15;;
20725;SDS011;10524;48.132;8.518;2024-01-30T07:35:34;37.90;;;21.63;;
20725;SDS011;10524;48.132;8.518;2024-01-30T07:38:00;37.63;;;19.95;;
20725;SDS011;10524;48.132;8.518;2024-01-30T07:40:26;37.50;;;19.25;;
20725;SDS011;10524;48.132;8.518;2024-01-30T07:42:53;36.45;;;18.75;;
20725;SDS011;10524;48.132;8.518;2024-01-30T07:45:19;32.67;;;18.05;;
20725;SDS011;10524;48.132;8.518;2024-01-30T07:47:49;37.00;;;19.25;;
20725;SDS011;10524;48.132;8.518;2024-01-30T07:50:15;31.52;;;17.23;;
20725;SDS011;10524;48.132;8.518;2024-01-30T07:52:42;28.90;;;16.73;;
20725;SDS011;10524;48.132;8.518;2024-01-30T07:55:08;29.63;;;16.00;;
20725;SDS011;10524;48.132;8.518;2024-01-30T07:57:34;24.80;;;14.75;;
20725;SDS011;10524;48.132;8.518;2024-01-30T08:00:00;30.52;;;18.05;;
20725;SDS011;10524;48.132;8.518;2024-01-30T08:02:32;26.83;;;16.17;;
20725;SDS011;10524;48.132;8.518;2024-01-30T08:04:58;32.63;;;19.17;;
20725;SDS011;10524;48.132;8.518;2024-01-30T08:07:23;29.73;;;18.83;;
20725;SDS011;10524;48.132;8.518;2024-01-30T08:09:49;29.55;;;18.45;;
20725;SDS011;10524;48.132;8.518;2024-01-30T08:12:15;25.13;;;16.80;;
20725;SDS011;10524;48.132;8.518;2024-01-30T08:14:41;27.17;;;16.55;;
20725;SDS011;10524;48.132;8.518;2024-01-30T08:17:07;20.38;;;14.07;;
20725;SDS011;10524;48.132;8.518;2024-01-30T08:19:33;20.08;;;14.35;;
20725;SDS011;10524;48.132;8.518;2024-01-30T08:21:59;19.02;;;12.43;;
20725;SDS011;10524;48.132;8.518;2024-01-30T08:24:24;15.52;;;11.63;;
20725;SDS011;10524;48.132;8.518;2024-01-30T08:26:50;16.13;;;10.73;;
20725;SDS011;10524;48.132;8.518;2024-01-30T08:29:16;11.98;;;9.75;;
20725;SDS011;10524;48.132;8.518;2024-01-30T08:31:42;16.23;;;10.50;;
20725;SDS011;10524;48.132;8.518;2024-01-30T08:34:07;11.80;;;9.75;;
20725;SDS011;10524;48.132;8.518;2024-01-30T08:36:33;11.15;;;9.00;;
20725;SDS011;10524;48.132;8.518;2024-01-30T08:38:59;11.70;;;9.40;;
20725;SDS011;10524;48.132;8.518;2024-01-30T08:41:25;10.80;;;8.50;;
20725;SDS011;10524;48.132;8.518;2024-01-30T08:43:51;9.63;;;8.45;;
20725;SDS011;10524;48.132;8.518;2024-01-30T08:46:18;9.20;;;7.63;;
20725;SDS011;10524;48.132;8.518;2024-01-30T08:48:43;13.05;;;9.48;;
20725;SDS011;10524;48.132;8.518;2024-01-30T08:51:10;10.80;;;9.35;;
20725;SDS011;10524;48.132;8.518;2024-01-30T08:53:36;11.77;;;9.75;;
20725;SDS011;10524;48.132;8.518;2024-01-30T08:56:02;12.75;;;10.00;;
20725;SDS011;10524;48.132;8.518;2024-01-30T08:58:28;12.23;;;10.32;;
20725;SDS011;10524;48.132;8.518;2024-01-30T09:00:54;8.35;;;7.13;;
20725;SDS011;10524;48.132;8.518;2024-01-30T09:03:20;9.75;;;6.90;;
20725;SDS011;10524;48.132;8.518;2024-01-30T09:05:45;8.15;;;6.97;;
20725;SDS011;10524;48.132;8.518;2024-01-30T09:08:11;9.57;;;7.47;;
20725;SDS011;10524;48.132;8.518;2024-01-30T09:10:37;9.77;;;7.30;;
20725;SDS011;10524;48.132;8.518;2024-01-30T09:13:02;9.98;;;7.53;;
20725;SDS011;10524;48.132;8.518;2024-01-30T09:15:28;11.10;;;8.45;;
20725;SDS011;10524;48.132;8.518;2024-01-30T09:17:54;11.02;;;8.55;;
20725;SDS011;10524;48.132;8.518;2024-01-30T09:20:20;9.60;;;7.80;;
20725;SDS011;10524;48.132;8.518;2024-01-30T09:22:47;9.75;;;7.55;;
20725;SDS011;10524;48.132;8.518;2024-01-30T09:25:14;8.27;;;6.60;;
20725;SDS011;10524;48.132;8.518;2024-01-30T09:27:40;10.50;;;7.40;;
20725;SDS011;10524;48.132;8.518;2024-01-30T09:30:05;9.07;;;7.22;;
20725;SDS011;10524;48.132;8.518;2024-01-30T09:32:32;8.75;;;7.03;;
20725;SDS011;10524;48.132;8.518;2024-01-30T09:34:58;7.88;;;6.78;;
20725;SDS011;10524;48.132;8.518;2024-01-30T09:37:24;7.60;;;5.95;;
20725;SDS011;10524;48.132;8.518;2024-01-30T09:39:49;9.48;;;6.40;;
20725;SDS011;10524;48.132;8.518;2024-01-30T09:44:56;6.47;;;4.70;;
20725;SDS011;10524;48.132;8.518;2024-01-30T09:47:22;5.65;;;4.53;;
20725;SDS011;10524;48.132;8.518;2024-01-30T09:49:48;5.28;;;4.10;;
20725;SDS011;10524;48.132;8.518;2024-01-30T09:52:14;6.07;;;4.25;;
20725;SDS011;10524;48.132;8.518;2024-01-30T09:54:40;7.35;;;4.43;;
20725;SDS011;10524;48.132;8.518;2024-01-30T09:57:07;5.63;;;4.53;;
20725;SDS011;10524;48.132;8.518;2024-01-30T09:59:33;11.20;;;8.55;;
20725;SDS011;10524;48.132;8.518;2024-01-30T10:01:59;9.00;;;7.47;;
20725;SDS011;10524;48.132;8.518;2024-01-30T10:04:25;11.23;;;7.25;;
20725;SDS011;10524;48.132;8.518;2024-01-30T10:06:51;10.75;;;7.07;;
20725;SDS011;10524;48.132;8.518;2024-01-30T10:09:17;10.15;;;7.55;;
20725;SDS011;10524;48.132;8.518;2024-01-30T10:11:42;8.30;;;6.45;;
20725;SDS011;10524;48.132;8.518;2024-01-30T10:14:08;9.23;;;6.18;;
20725;SDS011;10524;48.132;8.518;2024-01-30T10:16:34;7.43;;;6.18;;
20725;SDS011;10524;48.132;8.518;2024-01-30T10:19:00;9.85;;;6.30;;
20725;SDS011;10524;48.132;8.518;2024-01-30T10:21:26;10.25;;;5.85;;
20725;SDS011;10524;48.132;8.518;2024-01-30T10:23:52;9.93;;;5.90;;
20725;SDS011;10524;48.132;8.518;2024-01-30T10:26:18;8.77;;;5.75;;
20725;SDS011;10524;48.132;8.518;2024-01-30T10:28:44;5.95;;;4.72;;
20725;SDS011;10524;48.132;8.518;2024-01-30T10:31:10;8.00;;;6.25;;
20725;SDS011;10524;48.132;8.518;2024-01-30T10:33:36;8.88;;;6.63;;
20725;SDS011;10524;48.132;8.518;2024-01-30T10:36:05;9.43;;;7.00;;
20725;SDS011;10524;48.132;8.518;2024-01-30T10:38:32;9.35;;;6.80;;
20725;SDS011;10524;48.132;8.518;2024-01-30T10:40:58;9.82;;;6.85;;
20725;SDS011;10524;48.132;8.518;2024-01-30T10:43:32;8.48;;;7.07;;
20725;SDS011;10524;48.132;8.518;2024-01-30T10:46:11;7.43;;;6.38;;
20725;SDS011;10524;48.132;8.518;2024-01-30T10:48:50;7.30;;;5.50;;
20725;SDS011;10524;48.132;8.518;2024-01-30T10:51:23;6.47;;;3.95;;
20725;SDS011;10524;48.132;8.518;2024-01-30T10:53:51;5.07;;;4.10;;
20725;SDS011;10524;48.132;8.518;2024-01-30T10:56:18;6.78;;;4.53;;
20725;SDS011;10524;48.132;8.518;2024-01-30T10:58:47;5.43;;;4.60;;
20725;SDS011;10524;48.132;8.518;2024-01-30T11:01:14;6.05;;;4.82;;
20725;SDS011;10524;48.132;8.518;2024-01-30T11:03:40;5.53;;;4.82;;
20725;SDS011;10524;48.132;8.518;2024-01-30T11:06:10;6.22;;;4.70;;
20725;SDS011;10524;48.132;8.518;2024-01-30T11:08:39;7.63;;;5.97;;
20725;SDS011;10524;48.132;8.518;2024-01-30T11:11:08;7.43;;;5.60;;
20725;SDS011;10524;48.132;8.518;2024-01-30T11:13:35;8.38;;;5.75;;
20725;SDS011;10524;48.132;8.518;2024-01-30T11:16:04;9.18;;;6.35;;
20725;SDS011;10524;48.132;8.518;2024-01-30T11:18:31;10.02;;;6.88;;
20725;SDS011;10524;48.132;8.518;2024-01-30T11:21:01;9.52;;;6.72;;
20725;SDS011;10524;48.132;8.518;2024-01-30T11:23:27;9.13;;;7.15;;
20725;SDS011;10524;48.132;8.518;2024-01-30T11:25:54;16.35;;;8.98;;
20725;SDS011;10524;48.132;8.518;2024-01-30T11:28:21;11.38;;;8.90;;
20725;SDS011;10524;48.132;8.518;2024-01-30T11:30:48;11.48;;;8.05;;
20725;SDS011;10524;48.132;8.518;2024-01-30T11:33:26;12.18;;;8.00;;
20725;SDS011;10524;48.132;8.518;2024-01-30T11:35:56;10.10;;;8.07;;
20725;SDS011;10524;48.132;8.518;2024-01-30T11:38:25;9.80;;;7.80;;
20725;SDS011;10524;48.132;8.518;2024-01-30T11:40:52;10.23;;;7.32;;
20725;SDS011;10524;48.132;8.518;2024-01-30T11:43:24;14.30;;;7.00;;
20725;SDS011;10524;48.132;8.518;2024-01-30T11:45:50;9.82;;;7.22;;
20725;SDS011;10524;48.132;8.518;2024-01-30T11:48:16;9.63;;;7.32;;
20725;SDS011;10524;48.132;8.518;2024-01-30T11:50:42;10.45;;;7.18;;
20725;SDS011;10524;48.132;8.518;2024-01-30T11:53:09;10.90;;;7.28;;
20725;SDS011;10524;48.132;8.518;2024-01-30T11:55:36;10.38;;;8.38;;
20725;SDS011;10524;48.132;8.518;2024-01-30T11:58:02;12.15;;;8.70;;
20725;SDS011;10524;48.132;8.518;2024-01-30T12:00:29;10.23;;;7.32;;
20725;SDS011;10524;48.132;8.518;2024-01-30T12:02:58;10.57;;;7.80;;
20725;SDS011;10524;48.132;8.518;2024-01-30T12:05:26;8.65;;;7.60;;
20725;SDS011;10524;48.132;8.518;2024-01-30T12:07:52;11.75;;;8.20;;
20725;SDS011;10524;48.132;8.518;2024-01-30T12:10:18;10.27;;;7.63;;
20725;SDS011;10524;48.132;8.518;2024-01-30T12:12:47;11.43;;;8.32;;
20725;SDS011;10524;48.132;8.518;2024-01-30T12:15:15;9.10;;;7.50;;
20725;SDS011;10524;48.132;8.518;2024-01-30T12:17:41;10.95;;;7.85;;
20725;SDS011;10524;48.132;8.518;2024-01-30T12:20:11;11.02;;;7.95;;
20725;SDS011;10524;48.132;8.518;2024-01-30T12:22:38;9.93;;;7.53;;
20725;SDS011;10524;48.132;8.518;2024-01-30T12:25:09;10.50;;;7.55;;
20725;SDS011;10524;48.132;8.518;2024-01-30T12:27:35;11.32;;;7.43;;
20725;SDS011;10524;48.132;8.518;2024-01-30T12:30:04;12.75;;;9.05;;
20725;SDS011;10524;48.132;8.518;2024-01-30T12:32:42;9.05;;;7.38;;
20725;SDS011;10524;48.132;8.518;2024-01-30T12:35:11;9.13;;;7.35;;
20725;SDS011;10524;48.132;8.518;2024-01-30T12:37:38;9.88;;;7.40;;
20725;SDS011;10524;48.132;8.518;2024-01-30T12:40:05;9.05;;;6.40;;
20725;SDS011;10524;48.132;8.518;2024-01-30T12:42:32;13.45;;;7.18;;
20725;SDS011;10524;48.132;8.518;2024-01-30T12:44:58;9.75;;;6.68;;
20725;SDS011;10524;48.132;8.518;2024-01-30T12:47:24;10.55;;;8.02;;
20725;SDS011;10524;48.132;8.518;2024-01-30T12:49:51;11.07;;;7.97;;
20725;SDS011;10524;48.132;8.518;2024-01-30T12:52:20;9.70;;;7.80;;
20725;SDS011;10524;48.132;8.518;2024-01-30T12:54:46;10.23;;;7.00;;
20725;SDS011;10524;48.132;8.518;2024-01-30T12:57:12;9.52;;;6.30;;
20725;SDS011;10524;48.132;8.518;2024-01-30T12:59:38;9.52;;;7.70;;
20725;SDS011;10524;48.132;8.518;2024-01-30T13:02:04;7.45;;;5.78;;
20725;SDS011;10524;48.132;8.518;2024-01-30T13:04:30;7.20;;;5.25;;
20725;SDS011;10524;48.132;8.518;2024-01-30T13:06:56;7.20;;;5.45;;
20725;SDS011;10524;48.132;8.518;2024-01-30T13:09:23;7.50;;;5.82;;
20725;SDS011;10524;48.132;8.518;2024-01-30T13:11:49;8.90;;;5.55;;
20725;SDS011;10524;48.132;8.518;2024-01-30T13:14:16;7.25;;;5.95;;
20725;SDS011;10524;48.132;8.518;2024-01-30T13:16:42;9.15;;;6.13;;
20725;SDS011;10524;48.132;8.518;2024-01-30T13:19:08;8.38;;;5.88;;
20725;SDS011;10524;48.132;8.518;2024-01-30T13:21:33;6.10;;;4.72;;
20725;SDS011;10524;48.132;8.518;2024-01-30T13:23:59;8.32;;;5.20;;
20725;SDS011;10524;48.132;8.518;2024-01-30T13:26:25;29.77;;;17.35;;
20725;SDS011;10524;48.132;8.518;2024-01-30T13:28:51;26.90;;;16.20;;
20725;SDS011;10524;48.132;8.518;2024-01-30T13:31:16;13.20;;;9.80;;
20725;SDS011;10524;48.132;8.518;2024-01-30T13:33:44;13.80;;;10.45;;
20725;SDS011;10524;48.132;8.518;2024-01-30T13:36:10;14.13;;;9.75;;
20725;SDS011;10524;48.132;8.518;2024-01-30T13:38:37;6.05;;;4.38;;
20725;SDS011;10524;48.132;8.518;2024-01-30T13:41:04;9.48;;;5.00;;
20725;SDS011;10524;48.132;8.518;2024-01-30T13:43:30;7.05;;;4.45;;
20725;SDS011;10524;48.132;8.518;2024-01-30T13:45:55;6.53;;;4.30;;
20725;SDS011;10524;48.132;8.518;2024-01-30T13:48:22;7.32;;;4.78;;
20725;SDS011;10524;48.132;8.518;2024-01-30T13:50:47;6.57;;;4.65;;
20725;SDS011;10524;48.132;8.518;2024-01-30T13:53:13;7.43;;;4.53;;
20725;SDS011;10524;48.132;8.518;2024-01-30T13:55:39;6.28;;;4.10;;
20725;SDS011;10524;48.132;8.518;2024-01-30T13:58:08;4.78;;;3.92;;
20725;SDS011;10524;48.132;8.518;2024-01-30T14:00:33;6.53;;;4.45;;
20725;SDS011;10524;48.132;8.518;2024-01-30T14:02:59;8.23;;;4.93;;
20725;SDS011;10524;48.132;8.518;2024-01-30T14:05:25;6.85;;;4.78;;
20725;SDS011;10524;48.132;8.518;2024-01-30T14:07:53;6.80;;;4.93;;
20725;SDS011;10524;48.132;8.518;2024-01-30T14:10:19;7.07;;;4.18;;
20725;SDS011;10524;48.132;8.518;2024-01-30T14:12:45;7.25;;;4.15;;
20725;SDS011;10524;48.132;8.518;2024-01-30T14:15:13;5.00;;;3.70;;
20725;SDS011;10524;48.132;8.518;2024-01-30T14:17:40;4.82;;;3.63;;
20725;SDS011;10524;48.132;8.518;2024-01-30T14:20:06;7.25;;;4.22;;
20725;SDS011;10524;48.132;8.518;2024-01-30T14:22:33;5.22;;;3.80;;
20725;SDS011;10524;48.132;8.518;2024-01-30T14:25:00;5.13;;;3.80;;
20725;SDS011;10524;48.132;8.518;2024-01-30T14:27:28;7.20;;;4.72;;
20725;SDS011;10524;48.132;8.518;2024-01-30T14:29:53;5.80;;;3.58;;